Map

Track Data

SID SEASON NUMBER BASIN SUBBASIN NAME ISO_TIME NATURE LAT LON WMO_WIND WMO_PRES WMO_AGENCY TRACK_TYPE DIST2LAND LANDFALL IFLAG USA_AGENCY USA_ATCF_ID USA_LAT USA_LON USA_RECORD USA_STATUS USA_WIND USA_PRES USA_SSHS USA_R34_NE USA_R34_SE USA_R34_SW USA_R34_NW USA_R50_NE USA_R50_SE USA_R50_SW USA_R50_NW USA_R64_NE USA_R64_SE USA_R64_SW USA_R64_NW USA_POCI USA_ROCI USA_RMW USA_EYE TOKYO_LAT TOKYO_LON TOKYO_GRADE TOKYO_WIND TOKYO_PRES TOKYO_R50_DIR TOKYO_R50_LONG TOKYO_R50_SHORT TOKYO_R30_DIR TOKYO_R30_LONG TOKYO_R30_SHORT TOKYO_LAND CMA_LAT CMA_LON CMA_CAT CMA_WIND CMA_PRES HKO_LAT HKO_LON HKO_CAT HKO_WIND HKO_PRES NEWDELHI_LAT NEWDELHI_LON NEWDELHI_GRADE NEWDELHI_WIND NEWDELHI_PRES NEWDELHI_CI NEWDELHI_DP NEWDELHI_POCI REUNION_LAT REUNION_LON REUNION_TYPE REUNION_WIND REUNION_PRES REUNION_TNUM REUNION_CI REUNION_RMW REUNION_R34_NE REUNION_R34_SE REUNION_R34_SW REUNION_R34_NW REUNION_R50_NE REUNION_R50_SE REUNION_R50_SW REUNION_R50_NW REUNION_R64_NE REUNION_R64_SE REUNION_R64_SW REUNION_R64_NW BOM_LAT BOM_LON BOM_TYPE BOM_WIND BOM_PRES BOM_TNUM BOM_CI BOM_RMW BOM_R34_NE BOM_R34_SE BOM_R34_SW BOM_R34_NW BOM_R50_NE BOM_R50_SE BOM_R50_SW BOM_R50_NW BOM_R64_NE BOM_R64_SE BOM_R64_SW BOM_R64_NW BOM_ROCI BOM_POCI BOM_EYE BOM_POS_METHOD BOM_PRES_METHOD NADI_LAT NADI_LON NADI_CAT NADI_WIND NADI_PRES WELLINGTON_LAT WELLINGTON_LON WELLINGTON_WIND WELLINGTON_PRES DS824_LAT DS824_LON DS824_STAGE DS824_WIND DS824_PRES TD9636_LAT TD9636_LON TD9636_STAGE TD9636_WIND TD9636_PRES TD9635_LAT TD9635_LON TD9635_WIND TD9635_PRES TD9635_ROCI NEUMANN_LAT NEUMANN_LON NEUMANN_CLASS NEUMANN_WIND NEUMANN_PRES MLC_LAT MLC_LON MLC_CLASS MLC_WIND MLC_PRES USA_GUST BOM_GUST BOM_GUST_PER REUNION_GUST REUNION_GUST_PER USA_SEAHGT USA_SEARAD_NE USA_SEARAD_SE USA_SEARAD_SW USA_SEARAD_NW STORM_SPEED STORM_DIR
1943349S13147 1944 86 SP EA NOT_NAMED 1943-12-14 23:00:00 NR -12.8000 146.550 999 bom main 279 264 ______O___O___ -1 -12.8000 146.600 999 4 -12.8000 146.500 7 10 249
1943349S13147 1944 86 SP EA NOT_NAMED 1943-12-15 00:00:00 NR -12.8596 146.393 main 257 209 ______P___P___ -1 -12.8523 146.442 -12.8669 146.344 7 10 249
1943349S13147 1944 86 SP EA NOT_NAMED 1943-12-15 03:00:00 NR -13.0379 145.921 main 209 163 ______P___P___ -1 -13.0085 145.968 -13.0672 145.873 7 10 249
1943349S13147 1944 86 SP EA NOT_NAMED 1943-12-15 06:00:00 NR -13.2151 145.451 main 163 114 ______P___P___ -1 -13.1631 145.502 -13.2670 145.400 7 10 249
1943349S13147 1944 86 SP EA NOT_NAMED 1943-12-15 09:00:00 NR -13.3911 144.985 main 114 92 ______P___P___ -1 -13.3154 145.048 -13.4668 144.922 7 10 249
1943349S13147 1944 86 SP EA NOT_NAMED 1943-12-15 11:00:00 NR -13.5077 144.678 main 92 79 ______P___O___ -1 -13.4154 144.756 -13.6000 144.600 7 10 249
1943349S13147 1944 86 SP EA NOT_NAMED 1943-12-15 12:00:00 NR -13.5657 144.526 main 78 54 ______P___P___ -1 -13.4648 144.613 -13.6666 144.438 7 9 248
1943349S13147 1944 86 SP EA NOT_NAMED 1943-12-15 15:00:00 NR -13.7371 144.080 main 54 10 ______P___P___ -1 -13.6110 144.201 -13.8631 143.958 7 9 249
1943349S13147 1944 86 SP EA NOT_NAMED 1943-12-15 18:00:00 TS -13.8780 143.679 main 10 0 ______P__OP___ -1 -13.7534 143.820 -13.7000 143.800 TC 30 1000 -14.0470 143.508 7 8 251
1943349S13147 1944 86 SP EA NOT_NAMED 1943-12-15 19:00:00 TS -13.9150 143.554 1000 bom main 0 0 ______O__PP___ -1 -13.8000 143.700 1000 -13.7673 143.634 TC -14.1039 143.369 7 8 250
1943349S13147 1944 86 SP EA NOT_NAMED 1943-12-15 21:00:00 TS -14.0106 143.293 main 0 0 ______P__PP___ -1 -13.8940 143.465 1000 -13.9015 143.301 TC -14.2089 143.115 7 8 249
1943349S13147 1944 86 SP EA NOT_NAMED 1943-12-15 23:00:00 TS -14.1118 143.023 1000 bom main 0 0 ______O__PO___ -1 -14.0000 143.200 1000 -14.0353 142.968 TC -14.3000 142.900 7 8 248
1943349S13147 1944 86 SP EA NOT_NAMED 1943-12-16 00:00:00 TS -14.1719 142.892 main 0 0 ______P__PP___ -1 -14.0591 143.039 -14.1021 142.802 TC -14.3370 142.813 7 8 246
1943349S13147 1944 86 SP EA NOT_NAMED 1943-12-16 03:00:00 TS -14.3365 142.491 main 0 0 ______P__PP___ -1 -14.2649 142.464 -14.3016 142.301 TC -14.4256 142.613 7 8 247
1943349S13147 1944 86 SP EA NOT_NAMED 1943-12-16 06:00:00 TS -14.5014 142.108 main 0 0 ______P__OP___ -1 -14.5101 141.817 -14.5000 141.800 TC -14.4930 142.477 7 8 244
1943349S13147 1944 86 SP EA NOT_NAMED 1943-12-16 07:00:00 NR -14.5567 142.020 bom main 0 0 ______O___P___ -1 -14.6000 141.600 TC -14.5134 142.440 7 7 242
1943349S13147 1944 86 SP EA NOT_NAMED 1943-12-16 09:00:00 NR -14.6729 141.774 main 0 0 ______P___P___ -1 -14.7912 141.177 TC -14.5546 142.371 7 8 243
1943349S13147 1944 86 SP EA NOT_NAMED 1943-12-16 11:00:00 NR -14.7981 141.534 main 15 15 ______P___O___ -1 -14.9961 140.769 TC -14.6000 142.300 7 8 241
1943349S13147 1944 86 SP EA NOT_NAMED 1943-12-16 12:00:00 NR -14.8646 141.416 main 31 31 ______P___P___ -1 -15.1031 140.569 TC -14.6262 142.262 7 8 238
1943349S13147 1944 86 SP EA NOT_NAMED 1943-12-16 15:00:00 NR -15.0739 141.070 main 58 58 ______P___P___ -1 -15.4390 139.987 TC -14.7087 142.154 7 6 233
1943349S13147 1944 86 SP EA NOT_NAMED 1943-12-16 18:00:00 NR -15.2265 140.912 main 72 68 ______P___P___ -1 -15.7921 139.422 -14.8023 142.029 7 3 218
1943349S13147 1944 86 SP EA NOT_NAMED 1943-12-16 21:00:00 NR -15.3273 140.860 main 68 58 ______P___P___ -1 -16.1555 138.868 -14.9133 141.857 7 2 110
1943349S13147 1944 86 SP EA NOT_NAMED 1943-12-16 23:00:00 NR -15.2800 141.060 1002 bom main 48 21 ______O___O___ -1 -16.4000 138.500 1002 -15.0000 141.700 7 15 68
1943349S13147 1944 86 SP EA NOT_NAMED 1943-12-17 00:00:00 NR -15.0446 141.603 main 10 0 __________P___ -1 -15.0446 141.603 7 3 66
1943349S13147 1944 86 SP EA NOT_NAMED 1943-12-17 03:00:00 NR -15.1935 141.256 main 34 34 __________P___ -1 -15.1935 141.256 7 8 246
1943349S13147 1944 86 SP EA NOT_NAMED 1943-12-17 06:00:00 NR -15.3647 140.849 main 75 75 __________P___ -1 -15.3647 140.849 7 9 246
1943349S13147 1944 86 SP EA NOT_NAMED 1943-12-17 09:00:00 NR -15.5584 140.404 main 112 112 __________P___ -1 -15.5584 140.404 7 10 245
1943349S13147 1944 86 SP EA NOT_NAMED 1943-12-17 11:00:00 NR -15.7000 140.100 main 140 140 __________O___ -1 -15.7000 140.100 7 10 244
1943349S13147 1944 86 SP EA NOT_NAMED 1943-12-17 12:00:00 NR -15.7746 139.948 main 153 113 __________P___ -1 -15.7746 139.948 7 10 242
1943349S13147 1944 86 SP EA NOT_NAMED 1943-12-17 15:00:00 NR -16.0114 139.496 main 113 79 __________P___ -1 -16.0114 139.496 7 10 241
1943349S13147 1944 86 SP EA NOT_NAMED 1943-12-17 18:00:00 NR -16.2632 139.046 main 67 33 __________P___ -1 -16.2632 139.046 7 10 239
1943349S13147 1944 86 SP EA NOT_NAMED 1943-12-17 21:00:00 NR -16.5241 138.599 main 33 11 __________P___ -1 -16.5241 138.599 7 10 239
1943349S13147 1944 86 SP EA NOT_NAMED 1943-12-17 23:00:00 NR -16.7000 138.300 main 11 __________O___ -1 -16.7000 138.300 7 10 238

Digital Typhoon Data and Search

About IBTrACS Database

This database is a web-friendly format of International Best Track Archive for Climate Stewardship (IBTrACS), a global best track data archive curated by NOAA dating back to 1842.

Updated: 2021-10-08